createdAt,value
2023-01-12T00:01:14.395Z,98957.63
2023-01-12T00:03:17.760Z,98954.13
2023-01-12T00:05:21.235Z,98956.09
2023-01-12T00:07:24.958Z,98953.59
2023-01-12T00:09:28.479Z,98965.72
2023-01-12T00:11:32.194Z,98960.94
2023-01-12T00:13:35.898Z,98957.47
2023-01-12T00:15:59.511Z,98961.81
2023-01-12T00:18:04.331Z,98963.19
2023-01-12T00:20:08.177Z,98989.22
2023-01-12T00:22:16.676Z,98973.19
2023-01-12T00:24:20.202Z,98975.84
2023-01-12T00:26:23.553Z,98974.03
2023-01-12T00:28:26.744Z,98982.66
2023-01-12T00:30:30.059Z,98985.88
2023-01-12T00:32:33.223Z,98992.84
2023-01-12T00:34:37.931Z,98999.78
2023-01-12T00:36:41.388Z,98971.66
2023-01-12T00:38:44.836Z,99008.03
2023-01-12T00:40:48.104Z,98995.22
2023-01-12T00:43:08.709Z,98997.31
2023-01-12T00:45:23.294Z,99001.91
2023-01-12T00:47:26.571Z,99001.22
2023-01-12T00:49:30.357Z,99003.06
2023-01-12T00:51:35.072Z,99009.16
2023-01-12T00:53:38.543Z,99004.84
2023-01-12T00:55:42.040Z,99008.75
2023-01-12T00:57:45.273Z,99021.19
2023-01-12T00:59:48.611Z,99009.88
2023-01-12T01:01:52.262Z,99019.06
2023-01-12T01:03:55.788Z,99031.78
2023-01-12T01:06:02.812Z,99030.53
2023-01-12T01:08:07.908Z,99028.44
2023-01-12T01:10:11.800Z,99029.41
2023-01-12T01:12:15.098Z,99030.53
2023-01-12T01:14:18.553Z,99046.41
2023-01-12T01:16:21.721Z,99038.31
2023-01-12T01:18:25.128Z,99045.16
2023-01-12T01:20:28.475Z,99030.25
2023-01-12T01:22:31.774Z,99031.78
2023-01-12T01:24:36.623Z,99033.31
2023-01-12T01:26:39.991Z,99039.16
2023-01-12T01:28:43.263Z,99023.41
2023-01-12T01:30:46.777Z,99038.19
2023-01-12T01:32:49.948Z,99045.28
2023-01-12T01:34:53.113Z,99047.25
2023-01-12T01:36:56.812Z,99039.59
2023-01-12T01:39:00.076Z,99049.47
2023-01-12T01:41:05.106Z,99053.09
2023-01-12T01:43:11.071Z,99052.25
2023-01-12T01:45:16.905Z,99055.06
2023-01-12T01:47:25.927Z,99059.50
2023-01-12T01:49:31.768Z,99052.53
2023-01-12T01:51:34.971Z,99053.50
2023-01-12T01:53:39.768Z,99057.00
2023-01-12T01:55:48.404Z,99059.78
2023-01-12T01:57:56.170Z,99064.25
2023-01-12T02:00:00.009Z,99055.34
2023-01-12T02:02:03.647Z,99050.88
2023-01-12T02:04:07.401Z,99058.00
2023-01-12T02:06:10.520Z,99062.44
2023-01-12T02:08:18.506Z,99060.63
2023-01-12T02:10:22.313Z,99054.34
2023-01-12T02:12:42.716Z,99068.44
2023-01-12T02:15:06.033Z,99063.13
2023-01-12T02:17:20.728Z,99062.56
2023-01-12T02:19:36.231Z,99066.19
2023-01-12T02:21:51.222Z,99070.66
2023-01-12T02:24:12.165Z,99065.22
2023-01-12T02:26:36.879Z,99047.50
2023-01-12T02:29:03.562Z,99064.53
2023-01-12T02:31:25.575Z,99054.19
2023-01-12T02:33:36.866Z,99056.16
2023-01-12T02:35:44.575Z,99057.13
2023-01-12T02:37:50.567Z,99067.72
2023-01-12T02:39:59.834Z,99070.50
2023-01-12T02:42:24.296Z,99067.03
2023-01-12T02:44:29.341Z,99058.97
2023-01-12T02:46:34.101Z,99072.03
2023-01-12T02:48:39.698Z,99065.78
2023-01-12T02:50:46.907Z,99062.84
2023-01-12T02:52:53.358Z,99075.94
2023-01-12T02:54:57.229Z,99076.75
2023-01-12T02:57:03.660Z,99087.34
2023-01-12T02:59:10.620Z,99078.44
2023-01-12T03:01:15.522Z,99094.03
2023-01-12T03:03:20.873Z,99091.41
2023-01-12T03:05:24.109Z,99096.53
2023-01-12T03:07:36.221Z,99098.22
2023-01-12T03:09:41.264Z,99107.03
2023-01-12T03:11:44.797Z,99098.22
2023-01-12T03:13:49.132Z,99114.97
2023-01-12T03:15:53.977Z,99102.69
2023-01-12T03:17:59.903Z,99107.13
2023-01-12T03:20:07.048Z,99106.31
2023-01-12T03:22:12.522Z,99119.81
2023-01-12T03:24:17.115Z,99111.16
2023-01-12T03:26:23.321Z,99106.88
2023-01-12T03:28:28.327Z,99109.63
2023-01-12T03:30:35.043Z,99115.06
2023-01-12T03:32:38.280Z,99123.00
2023-01-12T03:34:41.309Z,99118.56
2023-01-12T03:36:47.425Z,99119.41
2023-01-12T03:38:57.656Z,99111.75
2023-01-12T03:41:04.168Z,99100.44
2023-01-12T03:43:08.409Z,99114.91
2023-01-12T03:45:16.290Z,99116.03
2023-01-12T03:47:21.877Z,99099.59
2023-01-12T03:49:27.982Z,99102.53
2023-01-12T03:51:33.688Z,99102.78
2023-01-12T03:53:39.761Z,99084.69
2023-01-12T03:55:43.947Z,99094.56
2023-01-12T03:57:47.549Z,99103.50
2023-01-12T03:59:50.588Z,99083.44
2023-01-12T04:01:53.787Z,99099.44
2023-01-12T04:03:57.231Z,99099.69
2023-01-12T04:06:00.224Z,99092.84
2023-01-12T04:08:03.372Z,99092.19
2023-01-12T04:10:08.712Z,99101.06
2023-01-12T04:12:10.659Z,99093.28
2023-01-12T04:14:13.684Z,99092.44
2023-01-12T04:16:16.777Z,99090.78
2023-01-12T04:18:19.803Z,99092.69
2023-01-12T04:20:22.882Z,99098.84
2023-01-12T04:22:43.279Z,99093.69
2023-01-12T04:24:46.274Z,99080.47
2023-01-12T04:26:50.675Z,99073.50
2023-01-12T04:28:53.727Z,99074.47
2023-01-12T04:30:56.740Z,99062.22
2023-01-12T04:33:00.164Z,99069.19
2023-01-12T04:35:03.221Z,99056.09
2023-01-12T04:37:06.168Z,99068.34
2023-01-12T04:39:09.176Z,99069.31
2023-01-12T04:41:12.199Z,99058.88
2023-01-12T04:43:16.650Z,99067.63
2023-01-12T04:45:19.678Z,99077.38
2023-01-12T04:47:22.684Z,99083.66
2023-01-12T04:49:25.918Z,99070.44
2023-01-12T04:51:28.923Z,99056.50
2023-01-12T04:53:32.306Z,99057.47
2023-01-12T04:55:37.249Z,99066.38
2023-01-12T04:57:40.254Z,99061.09
2023-01-12T04:59:44.629Z,99048.69
2023-01-12T05:01:47.643Z,99050.50
2023-01-12T05:03:50.670Z,99051.34
2023-01-12T05:05:53.726Z,99053.16
2023-01-12T05:08:14.549Z,99043.53
2023-01-12T05:10:23.769Z,99034.66
2023-01-12T05:12:26.743Z,99025.75
2023-01-12T05:14:29.854Z,99040.66
2023-01-12T05:16:34.362Z,99041.63
2023-01-12T05:18:37.389Z,99031.03
2023-01-12T05:20:40.300Z,99036.31
2023-01-12T05:22:43.209Z,99021.28
2023-01-12T05:24:46.132Z,99016.84
2023-01-12T05:26:49.097Z,99016.00
2023-01-12T05:28:52.555Z,99008.94
2023-01-12T05:30:55.829Z,98991.38
2023-01-12T05:33:00.382Z,98978.31
2023-01-12T05:35:03.749Z,98978.44
2023-01-12T05:37:06.676Z,98962.69
2023-01-12T05:39:09.623Z,98983.03
2023-01-12T05:41:14.501Z,98968.97
2023-01-12T05:43:34.743Z,98983.97
2023-01-12T05:45:37.878Z,98963.69
2023-01-12T05:47:40.869Z,98969.81
2023-01-12T05:49:45.328Z,98964.50
2023-01-12T05:51:49.098Z,98959.94
2023-01-12T05:53:52.062Z,98967.88
2023-01-12T05:55:55.057Z,98958.13
2023-01-12T05:57:58.013Z,98955.34
2023-01-12T06:00:01.005Z,98945.47
2023-01-12T06:02:04.061Z,98936.53
2023-01-12T06:04:07.158Z,98943.38
2023-01-12T06:06:11.503Z,98930.00
2023-01-12T06:08:14.523Z,98944.06
2023-01-12T06:10:17.773Z,98942.97
2023-01-12T06:12:38.197Z,98950.63
2023-01-12T06:14:41.113Z,98947.69
2023-01-12T06:16:44.538Z,98955.63
2023-01-12T06:18:47.465Z,98945.75
2023-01-12T06:20:50.409Z,98945.75
2023-01-12T06:22:55.608Z,98935.16
2023-01-12T06:24:58.810Z,98938.63
2023-01-12T06:27:01.759Z,98926.25
2023-01-12T06:29:07.118Z,98913.03
2023-01-12T06:31:11.863Z,98919.31
2023-01-12T06:33:14.913Z,98907.72
2023-01-12T06:35:19.459Z,98905.09
2023-01-12T06:37:22.824Z,98899.78
2023-01-12T06:39:27.194Z,98898.00
2023-01-12T06:41:47.533Z,98892.56
2023-01-12T06:43:50.425Z,98909.97
2023-01-12T06:45:54.305Z,98891.31
2023-01-12T06:47:57.444Z,98905.22
2023-01-12T06:50:00.808Z,98893.53
2023-01-12T06:52:03.789Z,98902.16
2023-01-12T06:54:06.771Z,98896.88
2023-01-12T06:56:11.177Z,98896.16
2023-01-12T06:58:14.177Z,98892.69
2023-01-12T07:00:17.299Z,98887.41
2023-01-12T07:02:20.281Z,98894.53
2023-01-12T07:04:23.295Z,98886.59
2023-01-12T07:06:26.335Z,98884.91
2023-01-12T07:08:29.713Z,98888.53
2023-01-12T07:10:33.655Z,98887.41
2023-01-12T07:12:38.073Z,98875.56
2023-01-12T07:14:41.075Z,98879.59
2023-01-12T07:16:44.038Z,98874.31
2023-01-12T07:18:48.154Z,98868.88
2023-01-12T07:20:51.092Z,98868.72
2023-01-12T07:22:55.583Z,98876.25
2023-01-12T07:24:58.559Z,98852.16
2023-01-12T07:27:01.631Z,98852.28
2023-01-12T07:29:06.165Z,98853.97
2023-01-12T07:31:09.410Z,98862.16
2023-01-12T07:33:13.572Z,98862.03
2023-01-12T07:35:25.297Z,98872.75
2023-01-12T07:37:28.621Z,98874.56
2023-01-12T07:39:31.773Z,98863.44
2023-01-12T07:41:52.703Z,98874.44
2023-01-12T07:43:55.924Z,98867.94
2023-01-12T07:46:00.752Z,98856.94
2023-01-12T07:48:03.796Z,98866.81
2023-01-12T07:50:07.400Z,98865.84
2023-01-12T07:52:11.891Z,98856.22
2023-01-12T07:54:14.836Z,98872.81
2023-01-12T07:56:19.208Z,98850.66
2023-01-12T07:58:22.144Z,98862.91
2023-01-12T08:00:25.901Z,98844.53
2023-01-12T08:02:30.275Z,98862.06
2023-01-12T08:04:33.258Z,98862.22
2023-01-12T08:06:36.578Z,98866.69
2023-01-12T08:08:39.612Z,98861.41
2023-01-12T08:10:43.738Z,98856.09
2023-01-12T08:12:46.652Z,98855.25
2023-01-12T08:14:49.633Z,98859.88
2023-01-12T08:16:53.496Z,98844.25
2023-01-12T08:18:59.386Z,98858.75
2023-01-12T08:21:05.716Z,98857.34
2023-01-12T08:23:11.759Z,98856.69
2023-01-12T08:25:16.759Z,98852.34
2023-01-12T08:27:22.858Z,98850.00
2023-01-12T08:29:32.195Z,98857.09
2023-01-12T08:31:37.279Z,98858.91
2023-01-12T08:33:40.776Z,98862.41
2023-01-12T08:35:46.472Z,98856.25
2023-01-12T08:37:50.011Z,98854.56
2023-01-12T08:39:54.258Z,98852.94
2023-01-12T08:41:57.379Z,98863.75
2023-01-12T08:44:03.388Z,98849.16
2023-01-12T08:46:09.335Z,98861.69
2023-01-12T08:48:12.461Z,98850.41
2023-01-12T08:50:16.107Z,98852.53
2023-01-12T08:52:21.055Z,98848.34
2023-01-12T08:54:24.368Z,98846.81
2023-01-12T08:56:27.747Z,98848.75
2023-01-12T08:58:30.939Z,98861.28
2023-01-12T09:00:34.462Z,98851.00
2023-01-12T09:02:37.845Z,98858.06
2023-01-12T09:04:41.408Z,98872.38
2023-01-12T09:06:45.730Z,98862.09
2023-01-12T09:08:54.414Z,98863.91
2023-01-12T09:11:03.243Z,98866.81
2023-01-12T09:13:06.578Z,98868.78
2023-01-12T09:15:10.373Z,98863.63
2023-01-12T09:17:13.763Z,98862.91
2023-01-12T09:19:16.817Z,98878.78
2023-01-12T09:21:21.712Z,98866.41
2023-01-12T09:23:24.766Z,98888.25
2023-01-12T09:25:29.442Z,98887.28
2023-01-12T09:27:32.634Z,98880.03
2023-01-12T09:29:35.996Z,98886.03
2023-01-12T09:31:40.279Z,98888.53
2023-01-12T09:33:44.912Z,98894.53
2023-01-12T09:35:48.083Z,98908.56
2023-01-12T09:37:51.363Z,98928.31
2023-01-12T09:39:54.742Z,98934.97
2023-01-12T09:42:17.585Z,98942.25
2023-01-12T09:44:41.276Z,98940.84
2023-01-12T09:46:59.732Z,98925.44
2023-01-12T09:49:03.211Z,98935.19
2023-01-12T09:51:10.864Z,98920.91
2023-01-12T09:53:16.368Z,98923.00
2023-01-12T09:55:21.314Z,98917.81
2023-01-12T09:57:38.783Z,98922.75
2023-01-12T09:59:46.327Z,98921.31
2023-01-12T10:01:49.894Z,98913.66
2023-01-12T10:03:53.257Z,98909.22
2023-01-12T10:05:58.366Z,98916.03
2023-01-12T10:08:01.617Z,98910.50
2023-01-12T10:10:05.188Z,98895.16
2023-01-12T10:12:16.305Z,98903.53
2023-01-12T10:14:51.286Z,98894.97
2023-01-12T10:17:02.993Z,98900.56
2023-01-12T10:19:12.522Z,98899.94
2023-01-12T10:21:15.935Z,98908.88
2023-01-12T10:23:24.868Z,98909.19
2023-01-12T10:25:32.261Z,98905.19
2023-01-12T10:27:36.171Z,98904.81
2023-01-12T10:29:39.633Z,98909.81
2023-01-12T10:31:44.251Z,98934.16
2023-01-12T10:34:02.637Z,98931.13
2023-01-12T10:36:18.844Z,98950.88
2023-01-12T10:38:24.816Z,98936.16
2023-01-12T10:40:30.281Z,98920.22
2023-01-12T10:42:50.945Z,98927.88
2023-01-12T10:45:06.405Z,98912.34
2023-01-12T10:47:11.982Z,98906.66
2023-01-12T10:49:19.643Z,98914.22
2023-01-12T10:51:25.261Z,98920.91
2023-01-12T10:53:30.932Z,98929.38
2023-01-12T10:55:36.075Z,98934.50
2023-01-12T10:57:44.649Z,98935.91
2023-01-12T10:59:52.699Z,98931.63
2023-01-12T11:02:12.452Z,98940.22
2023-01-12T11:04:20.412Z,98938.41
2023-01-12T11:06:25.477Z,98952.09
2023-01-12T11:08:29.139Z,98928.91
2023-01-12T11:10:33.460Z,98923.75
2023-01-12T11:12:39.418Z,98918.34
2023-01-12T11:14:42.991Z,98914.59
2023-01-12T11:16:49.486Z,98913.75
2023-01-12T11:18:57.483Z,98926.25
2023-01-12T11:21:04.485Z,98911.66
2023-01-12T11:23:11.769Z,98898.69
2023-01-12T11:25:18.076Z,98900.25
2023-01-12T11:27:27.375Z,98909.31
2023-01-12T11:29:36.359Z,98906.84
2023-01-12T11:31:40.579Z,98932.44
2023-01-12T11:33:45.160Z,98934.81
2023-01-12T11:35:51.273Z,98930.78
2023-01-12T11:37:59.175Z,98948.97
2023-01-12T11:40:05.846Z,98951.00
2023-01-12T11:42:30.472Z,98940.59
2023-01-12T11:44:37.188Z,98921.53
2023-01-12T11:46:42.708Z,98929.47
2023-01-12T11:48:48.533Z,98931.84
2023-01-12T11:50:53.525Z,98904.69
2023-01-12T11:52:59.111Z,98911.44
2023-01-12T11:55:02.508Z,98914.78
2023-01-12T11:57:27.981Z,98906.59
2023-01-12T11:59:33.941Z,98906.25
2023-01-12T12:01:42.325Z,98924.31
2023-01-12T12:03:52.494Z,98888.25
2023-01-12T12:05:59.749Z,98898.53
2023-01-12T12:08:10.553Z,98896.44
2023-01-12T12:10:22.680Z,98879.66
2023-01-12T12:12:33.156Z,98861.06
2023-01-12T12:14:51.288Z,98859.28
2023-01-12T12:17:00.921Z,98870.81
2023-01-12T12:19:17.031Z,98876.06
2023-01-12T12:21:27.375Z,98864.81
2023-01-12T12:23:45.269Z,98849.97
2023-01-12T12:25:54.287Z,98862.44
2023-01-12T12:28:08.971Z,98866.88
2023-01-12T12:30:25.015Z,98851.19
2023-01-12T12:32:31.947Z,98827.47
2023-01-12T12:34:43.538Z,98842.44
2023-01-12T12:36:51.522Z,98825.78
2023-01-12T12:39:11.725Z,98823.41
2023-01-12T12:41:41.536Z,98808.56
2023-01-12T12:44:02.261Z,98830.16
2023-01-12T12:46:11.712Z,98812.94
2023-01-12T12:48:16.906Z,98804.59
2023-01-12T12:50:22.535Z,98827.84
2023-01-12T12:52:26.487Z,98808.97
2023-01-12T12:54:31.768Z,98807.41
2023-01-12T12:56:36.628Z,98832.47
2023-01-12T12:58:41.593Z,98844.97
2023-01-12T13:00:46.946Z,98825.53
2023-01-12T13:02:58.814Z,98841.34
2023-01-12T13:05:05.233Z,98832.75
2023-01-12T13:07:09.245Z,98820.53
2023-01-12T13:09:30.850Z,98811.19
2023-01-12T13:11:53.939Z,98809.09
2023-01-12T13:14:01.194Z,98811.97
2023-01-12T13:16:19.210Z,98817.75
2023-01-12T13:18:45.013Z,98816.19
2023-01-12T13:20:59.969Z,98801.75
2023-01-12T13:23:03.304Z,98814.19
2023-01-12T13:25:29.902Z,98828.44
2023-01-12T13:27:49.958Z,98790.88
2023-01-12T13:29:53.207Z,98821.88
2023-01-12T13:31:58.574Z,98814.69
2023-01-12T13:34:16.470Z,98813.84
2023-01-12T13:36:31.135Z,98813.03
2023-01-12T13:38:51.723Z,98819.25
2023-01-12T13:41:02.966Z,98799.13
2023-01-12T13:43:19.692Z,98815.53
2023-01-12T13:45:23.616Z,98818.75
2023-01-12T13:47:30.677Z,98802.56
2023-01-12T13:49:35.047Z,98807.56
2023-01-12T13:51:40.044Z,98816.19
2023-01-12T13:53:43.514Z,98829.84
2023-01-12T13:55:56.844Z,98835.53
2023-01-12T13:58:01.254Z,98812.41
2023-01-12T14:00:09.403Z,98822.69
2023-01-12T14:02:19.003Z,98821.59
2023-01-12T14:04:29.032Z,98815.25
2023-01-12T14:06:38.218Z,98813.34
2023-01-12T14:09:05.463Z,98812.22
2023-01-12T14:11:16.954Z,98813.75
2023-01-12T14:13:29.118Z,98822.25
2023-01-12T14:15:54.980Z,98819.22
2023-01-12T14:18:02.179Z,98820.09
2023-01-12T14:20:14.510Z,98820.91
2023-01-12T14:22:19.300Z,98799.00
2023-01-12T14:24:23.504Z,98803.28
2023-01-12T14:26:27.404Z,98817.31
2023-01-12T14:28:31.059Z,98812.75
2023-01-12T14:30:35.019Z,98806.50
2023-01-12T14:32:43.658Z,98804.59
2023-01-12T14:34:50.284Z,98800.97
2023-01-12T14:36:53.670Z,98806.00
2023-01-12T14:38:57.318Z,98804.91
2023-01-12T14:41:02.523Z,98813.78
2023-01-12T14:43:23.601Z,98811.00
2023-01-12T14:45:45.367Z,98828.63
2023-01-12T14:47:50.123Z,98827.66
2023-01-12T14:49:53.334Z,98818.78
2023-01-12T14:51:57.277Z,98840.47
2023-01-12T14:54:02.725Z,98828.94
2023-01-12T14:56:10.915Z,98822.84
2023-01-12T14:58:21.059Z,98832.56
2023-01-12T15:00:25.777Z,98847.38
2023-01-12T15:02:33.387Z,98846.97
2023-01-12T15:04:38.063Z,98866.63
2023-01-12T15:06:44.208Z,98848.09
2023-01-12T15:08:54.530Z,98826.81
2023-01-12T15:10:58.717Z,98840.66
2023-01-12T15:13:14.161Z,98845.59
2023-01-12T15:15:19.016Z,98840.81
2023-01-12T15:17:39.507Z,98876.16
2023-01-12T15:20:01.364Z,98827.28
2023-01-12T15:22:21.896Z,98823.97
2023-01-12T15:24:43.306Z,98831.88
2023-01-12T15:26:51.094Z,98846.84
2023-01-12T15:28:59.036Z,98835.47
2023-01-12T15:31:02.294Z,98853.63
2023-01-12T15:33:05.867Z,98838.56
2023-01-12T15:35:15.179Z,98821.06
2023-01-12T15:37:19.210Z,98832.34
2023-01-12T15:39:22.540Z,98831.59
2023-01-12T15:41:41.233Z,98836.88
2023-01-12T15:43:44.570Z,98828.16
2023-01-12T15:45:48.457Z,98834.38
2023-01-12T15:47:51.831Z,98838.94
2023-01-12T15:49:55.046Z,98823.25
2023-01-12T15:52:00.565Z,98828.63
2023-01-12T15:54:04.288Z,98818.09
2023-01-12T15:56:09.681Z,98827.81
2023-01-12T15:58:12.907Z,98820.88
2023-01-12T16:00:18.031Z,98824.47
2023-01-12T16:02:27.607Z,98823.63
2023-01-12T16:04:46.039Z,98816.56
2023-01-12T16:06:49.707Z,98810.59
2023-01-12T16:08:54.304Z,98792.16
2023-01-12T16:11:13.755Z,98798.38
2023-01-12T16:13:16.823Z,98807.38
2023-01-12T16:15:21.105Z,98802.97
2023-01-12T16:17:24.266Z,98802.22
2023-01-12T16:19:28.098Z,98787.38
2023-01-12T16:21:31.516Z,98776.16
2023-01-12T16:23:34.759Z,98779.75
2023-01-12T16:25:39.367Z,98777.09
2023-01-12T16:27:43.094Z,98775.56
2023-01-12T16:29:46.717Z,98784.53
2023-01-12T16:31:49.980Z,98791.88
2023-01-12T16:33:53.203Z,98782.16
2023-01-12T16:35:56.727Z,98763.75
2023-01-12T16:37:59.902Z,98788.53
2023-01-12T16:40:03.124Z,98787.56
2023-01-12T16:42:07.886Z,98789.25
2023-01-12T16:44:11.094Z,98789.13
2023-01-12T16:46:14.557Z,98779.41
2023-01-12T16:48:17.875Z,98776.66
2023-01-12T16:50:21.138Z,98770.44
2023-01-12T16:52:24.553Z,98792.44
2023-01-12T16:54:27.922Z,98785.53
2023-01-12T16:56:31.132Z,98786.34
2023-01-12T16:58:35.693Z,98803.09
2023-01-12T17:00:38.968Z,98782.03
2023-01-12T17:02:43.375Z,98789.13
2023-01-12T17:04:49.151Z,98806.00
2023-01-12T17:06:52.489Z,98764.97
2023-01-12T17:08:56.159Z,98808.28
2023-01-12T17:11:05.225Z,98797.28
2023-01-12T17:13:08.689Z,98797.81
2023-01-12T17:15:13.872Z,98808.81
2023-01-12T17:17:17.248Z,98799.00
2023-01-12T17:19:21.204Z,98798.78
2023-01-12T17:21:24.753Z,98793.31
2023-01-12T17:23:28.586Z,98792.97
2023-01-12T17:25:31.913Z,98776.81
2023-01-12T17:27:35.093Z,98779.56
2023-01-12T17:29:38.745Z,98788.63
2023-01-12T17:31:43.607Z,98790.44
2023-01-12T17:33:47.186Z,98786.13
2023-01-12T17:35:50.583Z,98801.06
2023-01-12T17:37:55.482Z,98798.31
2023-01-12T17:39:59.343Z,98788.63
2023-01-12T17:42:20.225Z,98797.25
2023-01-12T17:44:23.738Z,98785.78
2023-01-12T17:46:26.948Z,98812.78
2023-01-12T17:48:31.694Z,98795.97
2023-01-12T17:50:34.937Z,98790.69
2023-01-12T17:52:38.327Z,98788.78
2023-01-12T17:54:41.664Z,98788.91
2023-01-12T17:56:45.784Z,98805.53
2023-01-12T17:58:51.104Z,98775.66
2023-01-12T18:00:54.354Z,98773.03
2023-01-12T18:02:58.028Z,98777.41
2023-01-12T18:05:02.766Z,98786.16
2023-01-12T18:07:06.250Z,98783.28
2023-01-12T18:09:10.739Z,98766.56
2023-01-12T18:11:14.375Z,98797.13
2023-01-12T18:13:17.663Z,98794.50
2023-01-12T18:15:21.373Z,98784.97
2023-01-12T18:17:24.878Z,98770.75
2023-01-12T18:19:28.094Z,98786.53
2023-01-12T18:21:32.991Z,98791.78
2023-01-12T18:23:36.728Z,98783.75
2023-01-12T18:25:41.807Z,98797.75
2023-01-12T18:27:45.796Z,98774.19
2023-01-12T18:29:48.957Z,98773.72
2023-01-12T18:31:52.389Z,98813.41
2023-01-12T18:33:57.924Z,98775.97
2023-01-12T18:36:01.381Z,98769.41
2023-01-12T18:38:07.921Z,98770.34
2023-01-12T18:40:12.134Z,98770.59
2023-01-12T18:42:32.453Z,98791.75
2023-01-12T18:44:36.330Z,98779.69
2023-01-12T18:46:59.036Z,98791.28
2023-01-12T18:49:02.239Z,98777.19
2023-01-12T18:51:23.106Z,98805.97
2023-01-12T18:53:31.133Z,98764.63
2023-01-12T18:55:36.862Z,98753.00
2023-01-12T18:57:40.040Z,98752.19
2023-01-12T18:59:43.254Z,98768.69
2023-01-12T19:01:46.455Z,98767.84
2023-01-12T19:03:50.291Z,98775.59
2023-01-12T19:06:00.836Z,98763.44
2023-01-12T19:08:25.544Z,98777.28
2023-01-12T19:10:29.563Z,98768.44
2023-01-12T19:12:34.029Z,98757.94
2023-01-12T19:14:54.386Z,98754.34
2023-01-12T19:17:14.993Z,98778.84
2023-01-12T19:19:22.932Z,98772.63
2023-01-12T19:21:43.645Z,98775.84
2023-01-12T19:24:03.971Z,98764.28
2023-01-12T19:26:27.869Z,98740.38
2023-01-12T19:28:35.875Z,98749.78
2023-01-12T19:30:39.278Z,98755.78
2023-01-12T19:32:42.575Z,98760.09
2023-01-12T19:34:45.958Z,98772.38
2023-01-12T19:36:49.365Z,98736.41
2023-01-12T19:38:52.958Z,98767.97
2023-01-12T19:41:10.652Z,98761.75
2023-01-12T19:43:19.197Z,98753.75
2023-01-12T19:45:22.707Z,98778.25
2023-01-12T19:47:25.918Z,98760.53
2023-01-12T19:49:29.104Z,98764.84
2023-01-12T19:51:32.355Z,98765.56
2023-01-12T19:53:35.715Z,98755.88
2023-01-12T19:55:41.193Z,98744.41
2023-01-12T19:57:44.711Z,98773.91
2023-01-12T19:59:49.547Z,98762.44
2023-01-12T20:01:54.195Z,98776.31
2023-01-12T20:03:57.487Z,98765.66
2023-01-12T20:06:00.743Z,98819.00
2023-01-12T20:08:04.017Z,98793.53
2023-01-12T20:10:09.099Z,98788.75
2023-01-12T20:12:12.323Z,98769.34
2023-01-12T20:14:16.527Z,98788.59
2023-01-12T20:16:21.031Z,98785.84
2023-01-12T20:18:24.699Z,98793.75
2023-01-12T20:20:28.156Z,98817.19
2023-01-12T20:22:31.793Z,98799.56
2023-01-12T20:24:35.100Z,98800.44
2023-01-12T20:26:40.424Z,98798.06
2023-01-12T20:28:43.590Z,98770.06
2023-01-12T20:30:46.872Z,98808.94
2023-01-12T20:32:51.929Z,98770.53
2023-01-12T20:34:55.086Z,98792.66
2023-01-12T20:36:58.320Z,98785.84
2023-01-12T20:39:01.609Z,98805.97
2023-01-12T20:41:05.689Z,98801.66
2023-01-12T20:43:09.047Z,98777.13
2023-01-12T20:45:13.662Z,98805.97
2023-01-12T20:47:19.329Z,98797.13
2023-01-12T20:49:24.187Z,98803.09
2023-01-12T20:51:27.508Z,98806.31
2023-01-12T20:53:31.769Z,98813.94
2023-01-12T20:55:35.072Z,98807.47
2023-01-12T20:57:39.251Z,98820.53
2023-01-12T20:59:42.809Z,98821.09
2023-01-12T21:01:46.195Z,98829.00
2023-01-12T21:03:49.489Z,98836.91
2023-01-12T21:05:54.752Z,98839.53
2023-01-12T21:08:07.404Z,98844.66
2023-01-12T21:10:12.304Z,98841.34
2023-01-12T21:12:15.598Z,98842.16
2023-01-12T21:14:20.079Z,98842.16
2023-01-12T21:16:23.561Z,98847.56
2023-01-12T21:18:26.766Z,98843.25
2023-01-12T21:20:30.077Z,98858.22
2023-01-12T21:22:34.718Z,98863.72
2023-01-12T21:24:37.942Z,98880.34
2023-01-12T21:26:41.407Z,98885.34
2023-01-12T21:28:44.614Z,98878.31
2023-01-12T21:30:48.036Z,98896.50
2023-01-12T21:32:53.009Z,98897.31
2023-01-12T21:34:56.433Z,98914.78
2023-01-12T21:36:59.733Z,98891.81
2023-01-12T21:39:05.521Z,98880.31
2023-01-12T21:41:08.961Z,98888.09
2023-01-12T21:43:12.531Z,98895.88
2023-01-12T21:45:15.874Z,98907.38
2023-01-12T21:47:19.186Z,98887.13
2023-01-12T21:49:22.488Z,98903.78
2023-01-12T21:51:25.768Z,98917.91
2023-01-12T21:53:29.071Z,98903.78
2023-01-12T21:55:34.623Z,98930.81
2023-01-12T21:57:37.895Z,98931.63
2023-01-12T21:59:41.128Z,98949.97
2023-01-12T22:01:45.717Z,98933.19
2023-01-12T22:03:49.110Z,98940.88
2023-01-12T22:05:52.424Z,98940.75
2023-01-12T22:07:57.942Z,98946.84
2023-01-12T22:10:19.290Z,98953.06
2023-01-12T22:12:24.037Z,98950.56
2023-01-12T22:14:27.309Z,98966.22
2023-01-12T22:16:30.688Z,98960.97
2023-01-12T22:18:34.846Z,98957.38
2023-01-12T22:20:38.833Z,98967.06
2023-01-12T22:22:42.055Z,98966.22
2023-01-12T22:24:45.122Z,98983.69
2023-01-12T22:26:48.435Z,98989.09
2023-01-12T22:28:53.245Z,98994.34
2023-01-12T22:30:56.437Z,98984.66
2023-01-12T22:32:59.614Z,98980.25
2023-01-12T22:35:02.876Z,98984.56
2023-01-12T22:37:06.213Z,98994.97
2023-01-12T22:39:09.518Z,98997.34
2023-01-12T22:41:13.748Z,98996.41
2023-01-12T22:43:28.119Z,98996.97
2023-01-12T22:45:34.774Z,99020.69
2023-01-12T22:47:47.605Z,99014.59
2023-01-12T22:49:51.766Z,99005.13
2023-01-12T22:51:55.686Z,99013.28
2023-01-12T22:53:59.376Z,99009.09
2023-01-12T22:56:03.291Z,98994.22
2023-01-12T22:58:07.160Z,99010.88
2023-01-12T23:00:12.990Z,99020.31
2023-01-12T23:02:31.551Z,99015.91
2023-01-12T23:04:35.544Z,99006.94
2023-01-12T23:06:40.036Z,99020.81
2023-01-12T23:08:43.953Z,99025.00
2023-01-12T23:10:47.114Z,99022.97
2023-01-12T23:13:04.124Z,99036.97
2023-01-12T23:15:07.916Z,99039.47
2023-01-12T23:17:12.851Z,99047.38
2023-01-12T23:19:17.630Z,99040.41
2023-01-12T23:21:22.328Z,99047.63
2023-01-12T23:23:25.635Z,99066.19
2023-01-12T23:25:28.876Z,99082.94
2023-01-12T23:27:33.817Z,99081.13
2023-01-12T23:29:36.979Z,99068.81
2023-01-12T23:31:40.290Z,99060.66
2023-01-12T23:33:44.137Z,99088.81
2023-01-12T23:35:49.310Z,99094.78
2023-01-12T23:37:53.224Z,99094.78
2023-01-12T23:39:56.678Z,99103.63
2023-01-12T23:41:59.977Z,99108.06
2023-01-12T23:44:04.245Z,99117.03
2023-01-12T23:46:08.440Z,99133.91
2023-01-12T23:48:11.760Z,99134.53
2023-01-12T23:50:15.133Z,99133.28
2023-01-12T23:52:19.756Z,99131.16
2023-01-12T23:54:23.407Z,99138.53
2023-01-12T23:56:27.417Z,99131.13
2023-01-12T23:58:30.896Z,99130.50
